Time;durP1;ratioP1;P1;durP2;ratioP2;P2;SDS_P1;SDS_P2;PMS_P1;PMS_P2;Temp;Humidity;BMP_temperature;BMP_pressure;BME280_temperature;BME280_humidity;BME280_pressure;Samples;Min_cycle;Max_cycle;Signal;HPM_P1;HPM_P2
2022/02/06 00:00:31;;;;;;;9.33;5.90;;;;;;;6.71;51.71;102227.25;2089895;28;20178;-66
2022/02/06 00:01:35;;;;;;;9.77;6.32;;;;;;;5.97;51.77;102106.75;2089971;28;20566;-66
2022/02/06 00:02:38;;;;;;;8.95;5.90;;;;;;;6.75;51.90;102238.31;2089957;28;20180;-65
2022/02/06 00:03:40;;;;;;;7.95;5.35;;;;;;;6.74;51.96;102245.00;2090118;28;20654;-66
2022/02/06 00:04:42;;;;;;;10.07;6.45;;;;;;;6.69;51.59;102224.06;2089352;28;20283;-66
2022/02/06 00:05:44;;;;;;;8.70;6.00;;;;;;;6.08;51.86;102139.94;2089512;28;20184;-66
2022/02/06 00:06:44;;;;;;;12.18;6.35;;;;;;;6.65;52.25;102222.41;2089153;28;20260;-66
2022/02/06 00:07:47;;;;;;;9.70;6.70;;;;;;;6.28;52.33;102196.56;2090094;28;20559;-66
2022/02/06 00:08:47;;;;;;;9.35;5.82;;;;;;;6.66;52.53;102238.56;2090026;28;20255;-66
2022/02/06 00:09:48;;;;;;;12.40;6.57;;;;;;;6.65;52.42;102239.75;2090097;28;20169;-66
2022/02/06 00:10:49;;;;;;;10.20;6.77;;;;;;;6.59;52.08;102243.97;2089914;28;20176;-66
2022/02/06 00:11:49;;;;;;;9.90;6.87;;;;;;;6.60;52.54;102240.03;2089943;28;20184;-65
2022/02/06 00:12:50;;;;;;;10.13;6.73;;;;;;;6.56;52.33;102241.94;2090109;28;20177;-65
2022/02/06 00:13:50;;;;;;;9.23;6.80;;;;;;;6.45;52.41;102227.19;2090004;28;20180;-65
2022/02/06 00:14:52;;;;;;;9.13;6.70;;;;;;;6.49;52.07;102244.56;2089206;28;20246;-66
2022/02/06 00:15:53;;;;;;;9.57;7.28;;;;;;;6.00;52.77;102185.81;2089788;28;20183;-66
2022/02/06 00:16:53;;;;;;;12.13;7.30;;;;;;;6.50;52.28;102253.63;2089048;28;20184;-66
2022/02/06 00:17:54;;;;;;;11.60;6.43;;;;;;;5.60;52.59;102118.56;2089955;28;20172;-66
2022/02/06 00:18:54;;;;;;;11.27;6.90;;;;;;;6.45;52.73;102254.72;2090017;28;20237;-66
2022/02/06 00:19:55;;;;;;;9.83;6.40;;;;;;;6.28;52.48;102237.84;2090034;28;20257;-66
2022/02/06 00:20:59;;;;;;;12.10;7.27;;;;;;;6.41;53.03;102261.34;2088760;28;20184;-66
2022/02/06 00:22:03;;;;;;;9.73;6.50;;;;;;;6.40;52.50;102266.03;2089748;28;20174;-66
2022/02/06 00:23:08;;;;;;;10.15;6.93;;;;;;;6.27;52.19;102242.59;2089909;28;20265;-65
2022/02/06 00:24:15;;;;;;;10.43;6.40;;;;;;;6.23;52.70;102236.22;2090190;28;20167;-66
2022/02/06 00:25:29;;;;;;;12.95;6.80;;;;;;;5.78;52.68;102170.00;2089188;28;20242;-66
2022/02/06 00:26:42;;;;;;;9.57;6.38;;;;;;;6.34;52.32;102264.75;2089522;28;20175;-65
2022/02/06 00:30:59;;;;;;;8.07;5.80;;;;;;;6.40;52.16;102270.75;2072195;28;20232;-66
2022/02/06 00:32:06;;;;;;;8.35;5.63;;;;;;;6.34;51.98;102272.19;2089767;28;20267;-66
2022/02/06 00:35:39;;;;;;;8.23;5.88;;;;;;;6.16;51.82;102251.78;2089277;28;20169;-66
2022/02/06 00:39:21;;;;;;;10.73;6.20;;;;;;;6.22;52.41;102275.91;2072300;28;20210;-66
2022/02/06 00:40:29;;;;;;;9.73;5.77;;;;;;;6.24;52.01;102281.84;2084494;28;20279;-66
2022/02/06 00:41:34;;;;;;;8.52;5.70;;;;;;;6.15;52.32;102295.03;2089477;28;20215;-66
2022/02/06 00:42:35;;;;;;;8.18;5.88;;;;;;;5.91;52.55;102251.28;2089406;28;20180;-66
2022/02/06 00:43:36;;;;;;;13.03;6.10;;;;;;;6.06;52.41;102282.66;2089826;28;20258;-66
2022/02/06 00:44:37;;;;;;;9.17;5.93;;;;;;;6.02;52.12;102281.78;2089773;28;20185;-66
2022/02/06 00:45:37;;;;;;;10.70;6.50;;;;;;;5.90;53.18;102279.94;2089290;28;20188;-66
2022/02/06 00:46:39;;;;;;;9.37;5.70;;;;;;;5.91;52.09;102278.00;2089035;28;20184;-66
2022/02/06 00:47:42;;;;;;;9.85;6.22;;;;;;;5.89;52.38;102278.34;2089628;28;20265;-65
2022/02/06 00:48:50;;;;;;;9.10;5.90;;;;;;;5.85;52.93;102271.97;2089144;28;20302;-65
2022/02/06 00:49:50;;;;;;;9.27;5.63;;;;;;;5.82;52.83;102277.41;2089867;28;20162;-65
2022/02/06 00:51:03;;;;;;;8.17;5.10;;;;;;;5.85;52.68;102282.19;2089412;28;20238;-66
2022/02/06 00:52:17;;;;;;;10.07;5.40;;;;;;;5.78;52.76;102290.25;2089888;28;20229;-66
2022/02/06 00:53:18;;;;;;;8.25;4.97;;;;;;;5.76;52.71;102287.06;2089002;28;20304;-66
2022/02/06 00:54:19;;;;;;;7.18;5.35;;;;;;;5.80;52.75;102279.72;2089115;28;20204;-65
2022/02/06 00:55:19;;;;;;;10.43;5.33;;;;;;;5.73;52.09;102271.28;2089086;28;20188;-66
2022/02/06 00:56:20;;;;;;;7.50;5.20;;;;;;;5.78;52.13;102287.50;2089275;28;20273;-66
2022/02/06 00:57:20;;;;;;;9.13;5.30;;;;;;;5.27;52.50;102219.94;2088985;28;20219;-66
2022/02/06 00:58:21;;;;;;;6.90;4.67;;;;;;;5.75;52.20;102279.97;2089701;28;20254;-66
2022/02/06 00:59:21;;;;;;;8.10;4.47;;;;;;;5.73;52.79;102274.84;2089061;28;20207;-66
2022/02/06 01:00:23;;;;;;;9.03;5.13;;;;;;;5.75;52.26;102268.97;2089591;28;20176;-66
2022/02/06 01:01:24;;;;;;;8.63;4.93;;;;;;;5.73;52.57;102265.78;2088634;28;20720;-65
2022/02/06 01:02:24;;;;;;;8.13;5.10;;;;;;;5.81;52.07;102275.81;2088950;28;20612;-66
2022/02/06 01:03:25;;;;;;;9.33;5.30;;;;;;;5.78;52.16;102277.31;2089636;28;20724;-66
2022/02/06 01:04:28;;;;;;;7.93;4.83;;;;;;;5.69;52.23;102273.94;2089718;28;20225;-66
2022/02/06 01:05:28;;;;;;;10.20;4.82;;;;;;;5.69;52.38;102273.94;2088410;28;20180;-66
2022/02/06 01:06:29;;;;;;;11.83;4.83;;;;;;;5.44;52.29;102236.06;2088539;28;20203;-66
2022/02/06 01:07:29;;;;;;;10.70;4.87;;;;;;;5.68;52.48;102271.56;2089187;28;20183;-66
2022/02/06 01:08:30;;;;;;;8.70;4.83;;;;;;;5.67;52.16;102270.78;2089387;28;20176;-66
2022/02/06 01:09:31;;;;;;;9.07;5.17;;;;;;;5.66;52.48;102269.19;2089476;28;20180;-66
2022/02/06 01:10:31;;;;;;;10.60;5.10;;;;;;;5.61;52.88;102268.66;2088059;28;20184;-65
2022/02/06 01:11:34;;;;;;;8.83;4.47;;;;;;;5.49;52.42;102253.06;2088958;28;20169;-65
2022/02/06 01:12:37;;;;;;;7.18;4.55;;;;;;;5.63;52.58;102272.66;2089580;28;20174;-66
2022/02/06 01:16:25;;;;;;;7.93;4.38;;;;;;;4.79;52.54;102151.72;2084790;28;20253;-66
2022/02/06 01:17:32;;;;;;;10.55;4.82;;;;;;;5.56;52.60;102267.00;2089461;28;20556;-66
2022/02/06 01:18:38;;;;;;;7.70;4.63;;;;;;;5.50;52.48;102268.44;2089085;28;20155;-66
2022/02/06 01:20:43;;;;;;;8.35;4.68;;;;;;;5.39;52.56;102245.38;2089372;28;20271;-66
2022/02/06 01:21:18;;;;;;;8.32;4.47;;;;;;;5.48;52.59;102259.72;2083302;28;20202;-66
2022/02/06 01:22:23;;;;;;;9.40;5.03;;;;;;;5.17;52.61;102193.81;2089655;28;20573;-65
2022/02/06 01:23:32;;;;;;;8.07;4.43;;;;;;;5.57;52.79;102257.59;2089494;28;20171;-66
2022/02/06 01:24:49;;;;;;;8.15;4.55;;;;;;;5.22;52.66;102212.78;2089534;28;20235;-66
2022/02/06 01:25:58;;;;;;;7.55;4.97;;;;;;;5.48;52.91;102259.72;2089414;28;20227;-66
2022/02/06 01:27:09;;;;;;;8.88;4.55;;;;;;;5.41;52.72;102269.75;2088997;28;20167;-66
2022/02/06 01:28:14;;;;;;;7.75;4.05;;;;;;;5.43;52.87;102271.00;2089654;28;20174;-66
2022/02/06 01:30:28;;;;;;;9.13;4.32;;;;;;;5.30;52.43;102257.72;2089501;28;20224;-66
2022/02/06 01:32:43;;;;;;;6.18;4.13;;;;;;;5.47;52.47;102269.13;2089503;28;20552;-66
2022/02/06 01:33:49;;;;;;;10.32;4.38;;;;;;;5.39;52.54;102263.84;2081337;28;20223;-65
2022/02/06 01:34:59;;;;;;;6.88;4.20;;;;;;;5.36;52.99;102270.84;2080786;28;20176;-66
2022/02/06 01:36:22;;;;;;;6.18;3.78;;;;;;;5.41;52.46;102278.00;2081265;28;20171;-66
2022/02/06 01:37:30;;;;;;;8.18;4.45;;;;;;;5.42;52.88;102285.09;2081179;28;20543;-66
2022/02/06 01:38:49;;;;;;;6.60;4.35;;;;;;;5.36;52.63;102287.34;2081324;28;20248;-65
2022/02/06 01:41:00;;;;;;;7.20;3.90;;;;;;;5.37;52.53;102286.19;2080821;28;20183;-66
2022/02/06 01:42:06;;;;;;;9.07;4.18;;;;;;;5.43;52.87;102286.72;2086161;28;20172;-65
2022/02/06 01:43:17;;;;;;;7.68;3.97;;;;;;;4.30;52.16;102095.56;2088513;28;20182;-66
2022/02/06 01:44:31;;;;;;;5.93;3.83;;;;;;;5.43;51.87;102282.00;2089462;28;20160;-66
2022/02/06 01:46:29;;;;;;;7.43;4.18;;;;;;;5.38;52.53;102292.50;2088824;28;20246;-66
2022/02/06 02:04:21;;;;;;;6.65;3.35;;;;;;;5.02;52.40;102266.09;2083565;28;20247;-65
2022/02/06 02:05:59;;;;;;;6.15;3.55;;;;;;;5.01;52.44;102282.94;2087910;28;20179;-65
2022/02/06 02:15:51;;;;;;;5.57;3.35;;;;;;;4.99;52.62;102269.56;2088359;28;20218;-66
2022/02/06 02:20:25;;;;;;;7.13;3.50;;;;;;;5.00;52.38;102268.41;2089242;28;20717;-66
2022/02/06 02:23:40;;;;;;;6.43;3.00;;;;;;;4.91;51.87;102250.47;2071904;28;20305;-66
2022/02/06 02:30:38;;;;;;;6.25;3.15;;;;;;;4.88;51.46;102230.00;2089232;28;20243;-66
2022/02/06 02:47:12;;;;;;;6.53;3.40;;;;;;;4.85;52.49;102282.13;2088550;28;20175;-66
2022/02/06 02:47:34;;;;;;;6.82;3.42;;;;;;;4.82;52.50;102277.34;2084907;28;20198;-66
2022/02/06 02:48:36;;;;;;;7.18;3.40;;;;;;;4.81;53.03;102276.53;2089065;28;20167;-66
2022/02/06 02:49:37;;;;;;;6.65;3.28;;;;;;;4.15;53.15;102168.53;2089016;28;20199;-66
2022/02/06 02:50:43;;;;;;;6.90;3.30;;;;;;;4.72;53.33;102284.16;2088747;28;20724;-66
2022/02/06 02:51:46;;;;;;;4.68;3.03;;;;;;;4.72;53.35;102292.38;2089042;28;20641;-66
2022/02/06 02:53:59;;;;;;;6.85;3.33;;;;;;;4.11;55.15;102206.03;2089190;28;20174;-66
2022/02/06 02:55:18;;;;;;;6.15;3.55;;;;;;;4.49;54.82;102263.94;2089568;28;20168;-66
2022/02/06 02:56:33;;;;;;;7.07;3.50;;;;;;;4.66;54.31;102298.53;2090221;28;20167;-66
2022/02/06 02:57:44;;;;;;;6.05;3.40;;;;;;;4.40;54.73;102259.72;2090204;28;20646;-66
2022/02/06 02:58:52;;;;;;;7.63;3.15;;;;;;;4.65;54.45;102297.72;2090588;28;20186;-66
2022/02/06 03:00:07;;;;;;;5.43;3.25;;;;;;;4.64;54.77;102292.56;2090479;28;20580;-66
2022/02/06 03:01:26;;;;;;;7.68;3.15;;;;;;;4.65;54.50;102294.97;2090242;28;20614;-66
2022/02/06 03:02:26;;;;;;;6.95;3.28;;;;;;;4.26;53.59;102234.66;2090673;28;20526;-66
2022/02/06 03:03:36;;;;;;;9.37;3.40;;;;;;;4.65;53.39;102302.38;2089950;28;20282;-66
2022/02/06 03:04:36;;;;;;;7.47;3.00;;;;;;;4.63;53.05;102297.28;2090551;28;20183;-66
2022/02/06 03:05:37;;;;;;;6.20;3.13;;;;;;;4.66;53.08;102299.28;2090044;28;20175;-66
2022/02/06 03:06:38;;;;;;;6.27;3.30;;;;;;;4.67;53.31;102294.63;2089984;28;20187;-65
2022/02/06 03:07:38;;;;;;;6.80;3.00;;;;;;;4.66;52.66;102299.28;2089988;28;20174;-66
2022/02/06 03:08:41;;;;;;;9.37;3.40;;;;;;;4.68;52.12;102296.19;2090502;28;20583;-66
2022/02/06 03:09:44;;;;;;;6.18;3.05;;;;;;;4.64;52.46;102296.13;2090513;28;20205;-66
2022/02/06 03:10:44;;;;;;;6.45;3.22;;;;;;;4.69;52.53;102297.78;2090105;28;20288;-66
2022/02/06 03:11:45;;;;;;;6.20;2.63;;;;;;;4.69;52.38;102297.78;2090507;28;20324;-66
2022/02/06 03:12:49;;;;;;;5.90;3.23;;;;;;;4.71;52.45;102307.28;2090377;28;20170;-66
2022/02/06 03:15:02;;;;;;;6.45;3.40;;;;;;;4.72;51.64;102297.09;2090030;28;20562;-66
2022/02/06 03:16:26;;;;;;;6.25;3.10;;;;;;;4.21;52.43;102218.47;2090595;28;20166;-66
2022/02/06 03:17:37;;;;;;;6.93;3.38;;;;;;;4.72;51.61;102294.34;2089704;28;20190;-66
2022/02/06 03:19:16;;;;;;;4.80;2.83;;;;;;;4.72;52.35;102303.38;2090176;28;20168;-66
2022/02/06 03:20:08;;;;;;;8.15;3.28;;;;;;;4.72;52.23;102302.59;2088207;28;20251;-66
2022/02/06 03:21:16;;;;;;;5.30;3.15;;;;;;;4.68;52.40;102297.00;2089956;28;20883;-66
2022/02/06 03:22:20;;;;;;;5.78;3.15;;;;;;;4.70;52.36;102304.88;2090738;28;20161;-66
2022/02/06 03:23:21;;;;;;;8.43;3.47;;;;;;;4.64;51.98;102303.53;2090337;28;20211;-66
2022/02/06 03:24:24;;;;;;;8.37;3.57;;;;;;;4.59;52.47;102298.31;2089871;28;20172;-66
2022/02/06 03:25:25;;;;;;;5.28;3.22;;;;;;;4.64;51.93;102300.81;2089490;28;20553;-66
2022/02/06 03:26:26;;;;;;;6.83;3.30;;;;;;;4.63;52.24;102304.69;2090222;28;20160;-66
2022/02/06 03:27:26;;;;;;;7.55;3.67;;;;;;;4.54;52.37;102295.81;2089530;28;20553;-66
2022/02/06 03:28:27;;;;;;;6.70;3.80;;;;;;;4.58;51.92;102311.25;2089182;28;20195;-65
2022/02/06 03:29:27;;;;;;;7.13;3.67;;;;;;;4.53;52.03;102296.97;2090410;28;20183;-67
2022/02/06 03:30:30;;;;;;;7.77;3.60;;;;;;;4.46;52.60;102283.84;2089386;28;20181;-66
2022/02/06 03:31:30;;;;;;;6.80;3.67;;;;;;;4.59;52.28;102306.53;2089678;28;20202;-66
2022/02/06 03:32:31;;;;;;;6.23;3.63;;;;;;;4.60;52.03;102299.91;2089795;28;20183;-66
2022/02/06 03:33:31;;;;;;;7.73;3.90;;;;;;;4.61;52.24;102298.78;2089753;28;20667;-66
2022/02/06 03:34:32;;;;;;;6.23;3.27;;;;;;;4.62;52.46;102306.63;2089954;28;20641;-66
2022/02/06 03:35:33;;;;;;;6.10;3.70;;;;;;;4.58;52.15;102303.03;2089567;28;20541;-67
2022/02/06 03:36:34;;;;;;;8.25;4.20;;;;;;;4.54;52.46;102307.59;2089963;28;20176;-66
2022/02/06 03:37:35;;;;;;;7.13;3.73;;;;;;;4.56;52.80;102307.25;2090312;28;20176;-66
2022/02/06 03:38:35;;;;;;;6.05;3.80;;;;;;;4.57;52.58;102317.88;2090231;28;20179;-66
2022/02/06 03:39:38;;;;;;;6.53;3.80;;;;;;;4.58;52.54;102311.25;2089776;28;20192;-66
2022/02/06 03:40:49;;;;;;;5.93;3.58;;;;;;;4.58;52.70;102310.44;2090039;28;20252;-66
2022/02/06 03:42:05;;;;;;;7.22;4.03;;;;;;;4.58;52.15;102305.75;2090357;28;20180;-66
2022/02/06 03:43:12;;;;;;;7.20;4.10;;;;;;;4.57;52.23;102297.88;2090141;28;20166;-66
2022/02/06 03:44:40;;;;;;;6.10;4.00;;;;;;;4.58;52.32;102307.69;2090387;28;20164;-66
2022/02/06 03:45:41;;;;;;;7.15;4.10;;;;;;;4.53;51.88;102295.03;2089155;28;20226;-66
2022/02/06 03:46:52;;;;;;;6.75;4.10;;;;;;;4.49;52.67;102301.56;2089798;28;20165;-66
2022/02/06 03:48:09;;;;;;;6.85;4.00;;;;;;;4.46;52.50;102302.28;2090363;28;20246;-66
2022/02/06 03:49:14;;;;;;;6.72;4.03;;;;;;;4.42;52.88;102295.88;2081882;28;20240;-66
2022/02/06 03:50:16;;;;;;;7.88;3.92;;;;;;;4.38;52.51;102295.78;2081608;28;20156;-66
2022/02/06 03:51:37;;;;;;;7.30;4.35;;;;;;;4.33;52.68;102292.50;2081553;28;20195;-66
2022/02/06 03:52:46;;;;;;;6.47;3.72;;;;;;;4.24;52.40;102289.91;2081816;28;20625;-66
2022/02/06 03:53:49;;;;;;;6.80;4.00;;;;;;;3.32;52.43;102145.00;2089706;28;20164;-67
2022/02/06 03:54:49;;;;;;;7.22;4.20;;;;;;;4.26;52.99;102295.06;2088657;28;20176;-66
2022/02/06 03:55:51;;;;;;;9.37;4.30;;;;;;;4.22;52.95;102300.44;2081453;28;20542;-66
2022/02/06 03:56:53;;;;;;;6.60;4.22;;;;;;;4.23;52.55;102301.22;2081512;28;20626;-66
2022/02/06 03:57:53;;;;;;;7.05;3.97;;;;;;;4.21;52.85;102301.56;2081992;28;20177;-66
2022/02/06 03:58:55;;;;;;;8.47;4.30;;;;;;;4.21;52.98;102298.03;2081932;28;20272;-66
2022/02/06 03:59:56;;;;;;;6.55;4.00;;;;;;;4.06;52.76;102280.34;2089245;28;20346;-66
2022/02/06 04:00:56;;;;;;;6.15;3.78;;;;;;;4.21;52.95;102293.34;2088516;28;20248;-66
2022/02/06 04:01:58;;;;;;;9.03;4.50;;;;;;;4.20;53.04;102294.50;2081473;28;20177;-66
2022/02/06 04:02:58;;;;;;;6.88;4.00;;;;;;;4.19;53.02;102294.81;2081919;28;20222;-65
2022/02/06 04:03:59;;;;;;;6.77;4.50;;;;;;;4.17;52.58;102294.41;2081976;28;20185;-66
2022/02/06 04:04:59;;;;;;;7.37;4.10;;;;;;;4.07;52.69;102292.94;2081199;28;20204;-66
2022/02/06 04:06:00;;;;;;;7.60;4.13;;;;;;;4.15;53.01;102291.22;2080835;28;20650;-66
2022/02/06 04:07:10;;;;;;;7.90;4.53;;;;;;;4.06;52.96;102296.03;2080911;28;20672;-66
2022/02/06 04:08:13;;;;;;;8.50;4.10;;;;;;;4.05;52.99;102294.44;2081958;28;20623;-67
2022/02/06 04:09:19;;;;;;;6.40;4.05;;;;;;;2.82;53.61;102115.31;2081589;28;20180;-66
2022/02/06 04:10:20;;;;;;;6.07;3.72;;;;;;;3.09;53.32;102160.34;2081940;28;20174;-66
2022/02/06 04:11:32;;;;;;;8.40;4.30;;;;;;;3.98;53.73;102296.97;2080752;28;20200;-66
2022/02/06 04:12:32;;;;;;;7.07;4.15;;;;;;;3.95;54.04;102308.66;2089453;28;20184;-66
2022/02/06 04:13:36;;;;;;;8.53;4.87;;;;;;;3.94;53.91;102301.53;2089263;28;20176;-65
2022/02/06 04:15:15;;;;;;;7.90;4.45;;;;;;;3.92;53.56;102301.09;2081701;28;20181;-66
2022/02/06 04:16:05;;;;;;;9.77;4.72;;;;;;;3.89;53.39;102302.59;2081485;28;20188;-66
2022/02/06 04:17:18;;;;;;;7.38;4.60;;;;;;;3.88;53.91;102302.94;2080897;28;20258;-66
2022/02/06 04:18:28;;;;;;;7.10;4.22;;;;;;;3.85;53.59;102303.63;2081920;28;20606;-66
2022/02/06 04:19:28;;;;;;;7.30;4.65;;;;;;;3.81;54.08;102294.50;2081584;28;20155;-66
2022/02/06 04:20:29;;;;;;;6.23;3.53;;;;;;;3.21;53.67;102204.16;2081365;28;20263;-66
2022/02/06 04:21:30;;;;;;;6.23;4.40;;;;;;;3.83;53.82;102297.69;2081393;28;20180;-66
2022/02/06 04:22:30;;;;;;;7.78;3.90;;;;;;;3.81;53.95;102300.00;2081424;28;20182;-66
2022/02/06 04:23:31;;;;;;;8.60;4.00;;;;;;;3.86;53.31;102299.75;2081712;28;20183;-66
2022/02/06 04:24:33;;;;;;;7.07;4.00;;;;;;;3.83;53.25;102314.94;2081785;28;20178;-66
2022/02/06 04:25:34;;;;;;;5.82;3.65;;;;;;;2.81;53.36;102152.03;2081061;28;20173;-67
2022/02/06 04:26:35;;;;;;;6.78;3.67;;;;;;;3.76;53.37;102308.44;2081180;28;20660;-66
2022/02/06 04:27:36;;;;;;;7.53;4.00;;;;;;;2.76;53.74;102156.94;2081334;28;20283;-66
2022/02/06 04:28:36;;;;;;;8.47;4.40;;;;;;;3.72;53.89;102307.53;2081575;28;20668;-66
2022/02/06 04:29:37;;;;;;;5.67;3.80;;;;;;;3.73;53.77;102303.66;2081614;28;20573;-66
2022/02/06 04:30:37;;;;;;;7.97;4.00;;;;;;;3.65;53.77;102297.16;2081215;28;20615;-66
2022/02/06 04:31:40;;;;;;;7.30;4.00;;;;;;;3.12;54.19;102217.16;2081630;28;20183;-66
2022/02/06 04:32:40;;;;;;;8.13;4.40;;;;;;;3.72;53.83;102304.81;2080927;28;20181;-66
2022/02/06 04:33:41;;;;;;;6.93;3.83;;;;;;;3.71;54.19;102312.25;2089789;28;20204;-66
2022/02/06 04:34:42;;;;;;;6.40;4.10;;;;;;;3.46;53.75;102275.03;2089754;28;20186;-66
2022/02/06 04:35:42;;;;;;;8.33;4.27;;;;;;;3.61;54.05;102303.69;2089325;28;20175;-66
2022/02/06 04:36:52;;;;;;;6.10;4.60;;;;;;;3.61;53.92;102312.72;2089286;28;20174;-66
2022/02/06 04:39:24;;;;;;;6.60;4.03;;;;;;;3.52;54.05;102303.00;2089861;28;20161;-66
2022/02/06 04:40:59;;;;;;;7.00;4.38;;;;;;;3.53;54.25;102312.81;2089628;28;20200;-66
2022/02/06 04:43:59;;;;;;;7.97;4.67;;;;;;;3.58;54.09;102320.81;2089058;28;20182;-66
2022/02/06 04:45:16;;;;;;;7.75;4.15;;;;;;;3.55;54.16;102322.28;2086530;28;20202;-66
2022/02/06 04:55:37;;;;;;;7.70;4.20;;;;;;;2.23;54.87;102170.81;2088820;28;20661;-66
2022/02/06 05:16:25;;;;;;;7.95;4.28;;;;;;;2.57;56.57;102319.00;2089193;28;20168;-66
2022/02/06 05:30:14;;;;;;;5.57;3.63;;;;;;;2.77;56.26;102309.91;2088957;28;20633;-66
2022/02/06 05:31:29;;;;;;;8.50;4.70;;;;;;;2.77;56.17;102320.88;2088251;28;20681;-66
2022/02/06 05:32:40;;;;;;;6.68;4.18;;;;;;;2.75;56.49;102312.22;2088952;28;20163;-66
2022/02/06 05:33:41;;;;;;;7.68;4.47;;;;;;;2.74;55.97;102324.31;2089418;28;20167;-66
2022/02/06 05:34:41;;;;;;;7.83;4.00;;;;;;;2.21;55.94;102238.75;2089241;28;20176;-66
2022/02/06 05:35:42;;;;;;;8.63;4.70;;;;;;;2.26;56.50;102250.25;2089025;28;20566;-66
2022/02/06 05:36:43;;;;;;;7.03;4.63;;;;;;;1.96;56.26;102191.34;2088300;28;20184;-66
2022/02/06 05:37:43;;;;;;;9.23;4.67;;;;;;;2.75;56.38;102320.41;2089449;28;20172;-66
2022/02/06 05:38:44;;;;;;;6.73;4.80;;;;;;;2.74;56.48;102313.34;2089336;28;20176;-66
2022/02/06 05:39:44;;;;;;;7.57;4.80;;;;;;;2.76;56.80;102300.09;2089111;28;20542;-67
2022/02/06 05:40:45;;;;;;;9.10;4.60;;;;;;;2.78;56.51;102308.78;2088447;28;20696;-66
2022/02/06 05:41:45;;;;;;;9.93;5.50;;;;;;;2.76;56.64;102305.59;2089227;28;20621;-67
2022/02/06 05:42:46;;;;;;;7.73;4.80;;;;;;;1.72;56.75;102133.06;2089237;28;20183;-67
2022/02/06 05:43:46;;;;;;;7.07;4.90;;;;;;;2.80;56.87;102302.97;2089283;28;20238;-66
2022/02/06 05:44:56;;;;;;;6.73;4.83;;;;;;;1.83;56.71;102142.44;2088773;28;20237;-66
2022/02/06 05:45:57;;;;;;;7.28;4.47;;;;;;;2.22;56.32;102211.03;2089350;28;20156;-66
2022/02/06 05:46:57;;;;;;;8.63;4.80;;;;;;;2.88;56.65;102313.81;2087750;28;20186;-66
2022/02/06 05:47:58;;;;;;;7.33;4.70;;;;;;;2.89;56.50;102314.63;2089415;28;20234;-67
2022/02/06 05:48:59;;;;;;;8.27;4.60;;;;;;;2.82;56.72;102325.34;2089090;28;20204;-66
2022/02/06 05:49:59;;;;;;;8.23;5.30;;;;;;;2.90;57.09;102311.56;2089586;28;20558;-66
2022/02/06 05:51:00;;;;;;;9.00;5.00;;;;;;;2.35;57.11;102229.09;2088236;28;20173;-66
2022/02/06 05:52:01;;;;;;;6.30;4.67;;;;;;;2.99;56.89;102316.94;2089318;28;20203;-66
2022/02/06 05:53:01;;;;;;;9.17;5.27;;;;;;;2.79;56.76;102282.22;2089059;28;20415;-66
2022/02/06 05:54:02;;;;;;;9.77;4.50;;;;;;;3.02;56.41;102313.50;2089350;28;20591;-66
2022/02/06 05:55:03;;;;;;;7.03;4.60;;;;;;;3.02;56.64;102327.19;2088430;28;20211;-66
2022/02/06 05:56:03;;;;;;;7.37;5.10;;;;;;;2.89;56.81;102309.16;2089306;28;20665;-66
2022/02/06 05:57:05;;;;;;;7.27;4.93;;;;;;;3.00;56.91;102307.56;2088601;28;20493;-66
2022/02/06 05:58:06;;;;;;;9.07;5.53;;;;;;;2.99;56.80;102316.94;2088779;28;20237;-66
2022/02/06 05:59:06;;;;;;;8.53;5.53;;;;;;;3.02;56.75;102318.97;2088465;28;20234;-66
2022/02/06 06:00:09;;;;;;;8.17;4.93;;;;;;;3.05;57.13;102315.56;2088698;28;20221;-66
2022/02/06 06:01:10;;;;;;;9.07;6.00;;;;;;;2.80;56.75;102297.50;2088471;28;20245;-66
2022/02/06 06:02:11;;;;;;;8.70;5.88;;;;;;;3.07;57.14;102324.22;2088999;28;20727;-66
2022/02/06 06:03:11;;;;;;;9.60;5.73;;;;;;;2.16;57.20;102170.59;2089032;28;20528;-66
2022/02/06 06:04:12;;;;;;;8.80;5.87;;;;;;;3.00;57.12;102296.59;2089296;28;20181;-66
2022/02/06 06:05:12;;;;;;;9.47;5.50;;;;;;;3.13;56.95;102331.88;2088484;28;20173;-66
2022/02/06 06:06:13;;;;;;;9.00;6.00;;;;;;;3.14;57.45;102324.47;2089449;28;20173;-66
2022/02/06 06:07:13;;;;;;;10.33;5.77;;;;;;;3.18;57.23;102325.41;2088593;28;20217;-66
2022/02/06 06:08:14;;;;;;;8.50;6.17;;;;;;;3.17;57.21;102332.81;2088704;28;20219;-66
2022/02/06 06:09:15;;;;;;;10.83;6.43;;;;;;;3.18;57.46;102334.41;2088879;28;20179;-66
2022/02/06 06:10:15;;;;;;;8.60;6.80;;;;;;;3.20;57.03;102337.63;2088669;28;20695;-66
2022/02/06 06:11:16;;;;;;;9.30;5.50;;;;;;;3.26;57.13;102336.25;2088141;28;20267;-66
2022/02/06 06:12:16;;;;;;;7.97;5.40;;;;;;;3.19;57.16;102329.72;2088846;28;20259;-66
2022/02/06 06:13:17;;;;;;;9.33;6.40;;;;;;;3.31;57.55;102336.03;2089068;28;20180;-66
2022/02/06 06:14:17;;;;;;;9.83;6.00;;;;;;;3.33;56.96;102336.47;2089330;28;20204;-66
2022/02/06 06:15:18;;;;;;;10.90;6.00;;;;;;;2.79;57.19;102250.16;2088473;28;20551;-66
2022/02/06 06:16:19;;;;;;;10.13;6.00;;;;;;;3.37;57.02;102331.09;2088008;28;20208;-66
2022/02/06 06:17:19;;;;;;;10.33;5.97;;;;;;;3.38;57.02;102329.97;2088373;28;20177;-66
2022/02/06 06:18:20;;;;;;;7.83;5.80;;;;;;;3.14;56.54;102286.13;2089134;28;20629;-66
2022/02/06 06:19:20;;;;;;;11.13;6.80;;;;;;;2.58;56.94;102191.94;2088314;28;20192;-66
2022/02/06 06:20:23;;;;;;;11.30;6.47;;;;;;;3.48;56.65;102334.97;2089157;28;20646;-66
2022/02/06 06:21:26;;;;;;;8.77;5.45;;;;;;;3.44;56.87;102345.81;2088831;28;20179;-66
2022/02/06 06:22:26;;;;;;;8.63;5.63;;;;;;;3.42;56.38;102328.13;2088579;28;20176;-66
2022/02/06 06:23:27;;;;;;;9.17;6.00;;;;;;;3.40;56.84;102333.16;2089080;28;20200;-66
2022/02/06 06:24:30;;;;;;;9.87;6.10;;;;;;;3.46;56.68;102334.53;2089227;28;20480;-66
2022/02/06 06:25:38;;;;;;;10.93;5.95;;;;;;;3.46;56.89;102335.34;2088322;28;20437;-66
2022/02/06 06:26:39;;;;;;;8.95;6.63;;;;;;;3.39;57.24;102335.09;2088745;28;20552;-66
2022/02/06 06:27:40;;;;;;;9.32;5.82;;;;;;;3.46;56.77;102334.53;2089104;28;20227;-66
2022/02/06 06:28:41;;;;;;;11.10;6.33;;;;;;;3.50;56.32;102335.44;2088959;28;20215;-66
2022/02/06 06:29:41;;;;;;;12.03;6.50;;;;;;;3.46;56.64;102329.84;2089213;28;20226;-66
2022/02/06 06:30:42;;;;;;;11.87;6.53;;;;;;;3.50;57.23;102335.44;2090447;28;20204;-66
2022/02/06 06:31:42;;;;;;;14.23;6.97;;;;;;;3.43;56.72;102322.31;2090766;28;20650;-66
2022/02/06 06:32:43;;;;;;;10.67;6.67;;;;;;;3.51;56.37;102329.63;2090453;28;20259;-66
2022/02/06 06:33:43;;;;;;;10.63;6.33;;;;;;;3.46;57.11;102323.56;2089778;28;20275;-66
2022/02/06 06:34:44;;;;;;;9.50;6.33;;;;;;;3.49;56.99;102342.84;2089858;28;20182;-66
2022/02/06 06:35:48;;;;;;;9.77;6.17;;;;;;;3.57;57.12;102331.00;2090587;28;20177;-66
2022/02/06 06:36:50;;;;;;;9.93;6.10;;;;;;;3.61;56.89;102348.34;2090239;28;20414;-66
2022/02/06 06:37:52;;;;;;;9.38;5.82;;;;;;;3.64;56.84;102324.94;2090822;28;20609;-66
2022/02/06 06:38:54;;;;;;;8.43;6.10;;;;;;;2.67;56.25;102169.97;2090724;28;20176;-66
2022/02/06 06:39:54;;;;;;;8.77;6.32;;;;;;;3.69;56.70;102324.69;2090113;28;20232;-66
2022/02/06 06:40:55;;;;;;;9.20;5.83;;;;;;;3.75;56.58;102332.31;2090067;28;20178;-66
2022/02/06 06:41:56;;;;;;;9.70;6.13;;;;;;;3.78;56.93;102326.16;2090774;28;20169;-66
2022/02/06 06:42:56;;;;;;;9.83;6.40;;;;;;;3.83;56.44;102325.09;2090778;28;20314;-66
2022/02/06 06:43:57;;;;;;;10.53;5.67;;;;;;;3.86;56.36;102324.44;2090171;28;20299;-66
2022/02/06 06:44:58;;;;;;;10.55;6.45;;;;;;;3.88;56.48;102324.88;2090068;28;20174;-66
2022/02/06 06:45:58;;;;;;;9.60;6.13;;;;;;;3.96;56.21;102332.19;2090831;28;20183;-66
2022/02/06 06:47:00;;;;;;;10.17;5.80;;;;;;;3.98;56.05;102333.44;2090153;28;20188;-66
2022/02/06 06:48:00;;;;;;;9.75;6.47;;;;;;;4.02;55.82;102326.13;2090859;28;20566;-66
2022/02/06 06:49:01;;;;;;;10.60;6.33;;;;;;;4.06;56.05;102327.00;2090366;28;20267;-65
2022/02/06 06:50:03;;;;;;;8.93;6.17;;;;;;;3.42;56.02;102229.47;2090810;28;20166;-66
2022/02/06 06:51:04;;;;;;;11.35;6.85;;;;;;;3.71;55.65;102262.06;2089587;28;20858;-66
2022/02/06 06:52:06;;;;;;;10.43;6.90;;;;;;;4.18;55.65;102335.22;2090691;28;20579;-66
2022/02/06 06:53:08;;;;;;;13.02;7.65;;;;;;;4.22;55.74;102330.63;2090549;28;20174;-66
2022/02/06 06:54:15;;;;;;;9.77;6.57;;;;;;;4.27;55.24;102327.59;2090029;28;20235;-66
2022/02/06 06:55:19;;;;;;;13.13;7.07;;;;;;;4.33;55.30;102328.97;2089777;28;20607;-66